Domov               UVHVVR             MKGP            O straneh              
ZDRAVSTVENO VARSTVO RASTLIN
  MREŽA AGROMET. POSTAJ
 ► PROGNOSTIČNA OBVESTILA
AGROMETEOROLOŠKI PODATKI -
ARSO
OBVLADOVANJE TVEGANJ ZARADI
NEUGODNIH VREMENSKIH RAZMER
  ► NARAVNE NESREČE
  ► SUŠA/MOČA
  ► NAMAKANJE
  ► ŽLED (gozdarstvo)
KARTOGRAFSKI PRIKAZI
SPLETNE POVEZAVE
PROJEKTI IN PUBLIKACIJE

AGROMETEOROLOŠKA MREŽA: VREMENSKE POSTAJE IN FENOLOŠKA OPAZOVANJA

Pregled podatkov za lokacijo Sužid, meteorološka postaja 37878

Pregled senzorjev na lokaciji

ID Ime Zadnja
vrednost
Datum
zadnje
spremembe
Tip
senzorja
1808 Omočenost lista (U) 1 U 19.7.2018 22:00 A730WET
1805 Padavine (mm) 0 mm 19.7.2018 22:00 Rain-O-Matic
1807 Relativna vlaga 2 m (% RH) 86,03 % RH 19.7.2018 22:00 50YA
1806 Temperatura 2 m (°C) 19,88 °C 19.7.2018 22:00 50YA

Pregled podatkov zadnjih 24 ur

Zap.
št.
Datum in čas Sužid
Omočenost
lista
Padavine Relativna
vlaga
2
m
Temperatura
2
m
1 19.7.2018 23:30
2 19.7.2018 23:00
3 19.7.2018 22:30
4 19.7.2018 22:00
5 19.7.2018 21:30
6 19.7.2018 21:00 1 0 86 19,9
7 19.7.2018 20:30 0 0 82,5 20,7
8 19.7.2018 20:00 0 0 78,8 21,6
9 19.7.2018 19:30 0 0 72,3 23,4
10 19.7.2018 19:00 0 0 59,2 25,8
11 19.7.2018 18:30 0 0 56,7 27,1
12 19.7.2018 18:00 0 0 53,1 28,4
13 19.7.2018 17:30 0 0 49,1 29,4
14 19.7.2018 17:00 0 0 47,7 30,1
15 19.7.2018 16:30 0 0 44,3 31,1
16 19.7.2018 16:00 0 0 41,9 32
17 19.7.2018 15:30 0 0 41,8 32,4
18 19.7.2018 15:00 0 0 39,4 32,7
19 19.7.2018 14:30 0 0 38,4 32,7
20 19.7.2018 14:00 0 0 37,9 33,3
21 19.7.2018 13:30 0 0 37,9 33
22 19.7.2018 13:00 0 0 33,3 32,9
23 19.7.2018 12:30 0 0 32,4 33,2
24 19.7.2018 12:00 0 0 33,4 32,4
25 19.7.2018 11:30 0 0 40 31,7
26 19.7.2018 11:00 0 0 37,5 31,2
27 19.7.2018 10:30 0 0 39,9 30
28 19.7.2018 10:00 0 0 42 29,3
29 19.7.2018 09:30 0 0 44,5 28,2
30 19.7.2018 09:00 0 0 51 25,4
31 19.7.2018 08:30 0 0 55,5 23,6
32 19.7.2018 08:00 0 0 62,9 21,8
33 19.7.2018 07:30 7 0 70,3 20,2
34 19.7.2018 07:00 10 0 82,8 17,9
35 19.7.2018 06:30 10 0 98,5 14,4
36 19.7.2018 06:00 10 0 99,9 11,6
37 19.7.2018 05:30 10 0 99,9 11,5
38 19.7.2018 05:00 10 0 99,9 11,2
39 19.7.2018 04:30 10 0 99,9 11,4
40 19.7.2018 04:00 10 0 99,9 11,6
41 19.7.2018 03:30 10 0 99,9 12
42 19.7.2018 03:00 10 0 99,9 12,4
43 19.7.2018 02:30 10 0 99,9 12,5
44 19.7.2018 02:00 10 0 99,9 12,7
45 19.7.2018 01:30 10 0 99,4 13
46 19.7.2018 01:00 10 0 99,4 13,6
47 19.7.2018 00:30 10 0 98,8 14
48 19.7.2018 00:00 10 0 95,5 14,2
© 2011 Ministrstvo za kmetijstvo, gozdarstvo in prehrano. Vse pravice pridržane.